createdAt,value
2019-03-27T00:00:10.444Z,99.90
2019-03-27T00:02:39.491Z,99.90
2019-03-27T00:05:08.362Z,99.90
2019-03-27T00:07:37.215Z,99.90
2019-03-27T00:10:07.684Z,99.90
2019-03-27T00:12:36.903Z,99.90
2019-03-27T00:15:13.191Z,99.90
2019-03-27T00:17:38.494Z,99.90
2019-03-27T00:20:08.855Z,99.90
2019-03-27T00:22:37.789Z,99.90
2019-03-27T00:25:08.328Z,99.90
2019-03-27T00:27:37.334Z,99.90
2019-03-27T00:30:06.848Z,99.90
2019-03-27T00:32:35.739Z,99.90
2019-03-27T00:35:04.872Z,99.90
2019-03-27T00:37:33.656Z,99.90
2019-03-27T00:40:02.556Z,99.90
2019-03-27T00:42:31.341Z,99.90
2019-03-27T00:45:00.389Z,99.90
2019-03-27T00:47:29.175Z,99.90
2019-03-27T00:49:57.909Z,99.90
2019-03-27T00:52:26.671Z,99.90
2019-03-27T00:54:55.942Z,99.90
2019-03-27T00:57:24.747Z,99.90
2019-03-27T00:59:53.635Z,99.90
2019-03-27T01:02:22.369Z,99.90
2019-03-27T01:04:51.113Z,99.90
2019-03-27T01:07:19.867Z,99.90
2019-03-27T01:09:48.917Z,99.90
2019-03-27T01:12:17.885Z,99.90
2019-03-27T01:14:46.948Z,99.90
2019-03-27T01:17:15.771Z,99.90
2019-03-27T01:19:44.752Z,99.90
2019-03-27T01:22:13.572Z,99.90
2019-03-27T01:24:42.586Z,99.90
2019-03-27T01:27:11.291Z,99.90
2019-03-27T01:29:40.211Z,99.90
2019-03-27T01:32:09.306Z,99.90
2019-03-27T01:34:38.206Z,99.90
2019-03-27T01:37:07.428Z,99.90
2019-03-27T01:39:36.132Z,99.90
2019-03-27T01:42:05.620Z,99.90
2019-03-27T01:44:34.399Z,99.90
2019-03-27T01:47:03.182Z,99.90
2019-03-27T01:49:32.214Z,99.90
2019-03-27T01:52:00.897Z,99.90
2019-03-27T01:54:29.609Z,99.90
2019-03-27T01:56:58.873Z,99.90
2019-03-27T01:59:27.683Z,99.90
2019-03-27T02:01:56.547Z,99.90
2019-03-27T02:04:25.486Z,99.90
2019-03-27T02:06:54.155Z,99.90
2019-03-27T02:09:22.853Z,99.90
2019-03-27T02:11:51.665Z,99.90
2019-03-27T02:14:20.477Z,99.90
2019-03-27T02:16:49.233Z,99.90
2019-03-27T02:19:18.453Z,99.90
2019-03-27T02:21:47.838Z,99.90
2019-03-27T02:24:16.682Z,99.90
2019-03-27T02:26:45.464Z,99.90
2019-03-27T02:29:14.307Z,99.90
2019-03-27T02:31:43.406Z,99.90
2019-03-27T02:34:12.283Z,99.90
2019-03-27T02:36:41.138Z,99.90
2019-03-27T02:39:09.986Z,99.90
2019-03-27T02:41:38.900Z,99.90
2019-03-27T02:44:07.600Z,99.90
2019-03-27T02:46:36.331Z,99.90
2019-03-27T02:49:05.142Z,99.90
2019-03-27T02:51:34.038Z,99.90
2019-03-27T02:54:02.788Z,99.90
2019-03-27T02:56:31.643Z,99.90
2019-03-27T02:59:00.691Z,99.90
2019-03-27T03:01:29.483Z,99.90
2019-03-27T03:03:58.265Z,99.90
2019-03-27T03:06:27.445Z,99.90
2019-03-27T03:08:56.204Z,99.90
2019-03-27T03:11:25.406Z,99.90
2019-03-27T03:13:54.397Z,99.90
2019-03-27T03:16:40.948Z,99.90
2019-03-27T03:18:54.372Z,99.90
2019-03-27T03:21:23.148Z,99.90
2019-03-27T03:23:52.454Z,99.90
2019-03-27T03:26:21.543Z,99.90
2019-03-27T03:28:50.465Z,99.90
2019-03-27T03:31:19.459Z,99.90
2019-03-27T03:33:48.769Z,99.90
2019-03-27T03:36:17.739Z,99.90
2019-03-27T03:38:46.506Z,99.90
2019-03-27T03:41:15.402Z,99.90
2019-03-27T03:43:44.161Z,99.90
2019-03-27T03:46:12.878Z,99.90
2019-03-27T03:48:41.885Z,99.90
2019-03-27T03:51:10.987Z,99.90
2019-03-27T03:53:39.857Z,99.90
2019-03-27T03:56:09.913Z,99.90
2019-03-27T03:58:40.698Z,99.90
2019-03-27T04:01:11.287Z,99.90
2019-03-27T04:03:42.353Z,99.90
2019-03-27T04:06:11.316Z,99.90
2019-03-27T04:08:40.391Z,99.90
2019-03-27T04:11:09.169Z,99.90
2019-03-27T04:13:38.544Z,99.90
2019-03-27T04:16:07.515Z,99.90
2019-03-27T04:18:36.425Z,99.90
2019-03-27T04:21:05.381Z,99.90
2019-03-27T04:23:34.545Z,99.90
2019-03-27T04:26:09.712Z,99.90
2019-03-27T04:28:34.315Z,99.90
2019-03-27T04:31:03.205Z,99.90
2019-03-27T04:33:32.120Z,99.90
2019-03-27T04:36:01.362Z,99.90
2019-03-27T04:38:30.319Z,99.90
2019-03-27T04:40:59.331Z,99.90
2019-03-27T04:43:28.162Z,99.90
2019-03-27T04:45:57.077Z,99.90
2019-03-27T04:48:25.900Z,99.90
2019-03-27T04:50:54.789Z,99.90
2019-03-27T04:53:23.663Z,99.90
2019-03-27T04:55:52.613Z,99.90
2019-03-27T04:58:21.431Z,99.90
2019-03-27T05:00:50.225Z,99.90
2019-03-27T05:03:18.909Z,99.90
2019-03-27T05:05:47.779Z,99.90
2019-03-27T05:08:16.534Z,99.90
2019-03-27T05:10:45.286Z,99.90
2019-03-27T05:13:14.088Z,99.90
2019-03-27T05:15:42.954Z,99.90
2019-03-27T05:18:11.744Z,99.90
2019-03-27T05:20:40.629Z,99.90
2019-03-27T05:23:09.758Z,99.90
2019-03-27T05:25:38.573Z,99.90
2019-03-27T05:28:07.455Z,99.90
2019-03-27T05:30:36.530Z,99.90
2019-03-27T05:33:05.181Z,99.90
2019-03-27T05:35:34.018Z,99.90
2019-03-27T05:38:02.956Z,99.90
2019-03-27T05:40:31.757Z,99.90
2019-03-27T05:43:01.366Z,99.90
2019-03-27T05:45:30.831Z,99.90
2019-03-27T05:48:00.150Z,99.90
2019-03-27T05:50:29.442Z,99.90
2019-03-27T05:52:58.273Z,99.90
2019-03-27T05:55:27.263Z,99.90
2019-03-27T05:57:56.233Z,99.90
2019-03-27T06:00:25.172Z,99.90
2019-03-27T06:02:54.354Z,99.90
2019-03-27T06:05:23.167Z,99.90
2019-03-27T06:07:51.915Z,99.90
2019-03-27T06:10:21.021Z,99.90
2019-03-27T06:12:49.846Z,99.90
2019-03-27T06:15:18.860Z,99.90
2019-03-27T06:17:47.559Z,99.90
2019-03-27T06:20:16.543Z,99.90
2019-03-27T06:22:45.298Z,99.90
2019-03-27T06:25:14.480Z,99.90
2019-03-27T06:27:43.278Z,99.90
2019-03-27T06:30:12.262Z,99.90
2019-03-27T06:32:41.499Z,99.90
2019-03-27T06:35:10.507Z,99.90
2019-03-27T06:37:39.550Z,99.90
2019-03-27T06:40:08.706Z,99.90
2019-03-27T06:42:37.594Z,99.90
2019-03-27T06:45:08.179Z,99.90
2019-03-27T06:47:36.961Z,99.90
2019-03-27T06:50:07.225Z,99.90
2019-03-27T06:52:35.997Z,99.90
2019-03-27T06:55:07.374Z,99.90
2019-03-27T06:57:37.180Z,99.90
2019-03-27T07:00:09.611Z,99.90
2019-03-27T07:02:38.971Z,99.90
2019-03-27T07:05:08.120Z,99.90
2019-03-27T07:07:37.233Z,99.90
2019-03-27T07:10:06.704Z,99.90
2019-03-27T07:12:35.448Z,99.90
2019-03-27T07:15:05.362Z,99.90
2019-03-27T07:17:34.202Z,99.90
2019-03-27T07:20:03.650Z,99.90
2019-03-27T07:22:32.390Z,99.90
2019-03-27T07:25:01.277Z,99.90
2019-03-27T07:27:30.429Z,99.90
2019-03-27T07:29:59.356Z,99.90
2019-03-27T07:32:28.710Z,99.90
2019-03-27T07:34:57.416Z,99.90
2019-03-27T07:37:26.253Z,99.90
2019-03-27T07:39:55.104Z,99.90
2019-03-27T07:42:24.005Z,99.90
2019-03-27T07:44:52.979Z,99.90
2019-03-27T07:47:21.842Z,99.90
2019-03-27T07:49:50.910Z,99.90
2019-03-27T07:52:20.153Z,99.90
2019-03-27T07:54:49.098Z,99.90
2019-03-27T07:57:18.028Z,99.90
2019-03-27T07:59:46.971Z,99.90
2019-03-27T08:02:16.282Z,99.90
2019-03-27T08:04:45.439Z,99.90
2019-03-27T08:07:26.158Z,99.90
2019-03-27T08:09:46.054Z,99.90
2019-03-27T08:12:15.248Z,99.90
2019-03-27T08:14:44.061Z,99.90
2019-03-27T08:17:13.478Z,99.90
2019-03-27T08:19:42.387Z,99.90
2019-03-27T08:22:11.746Z,98.80
2019-03-27T08:24:40.722Z,93.30
2019-03-27T08:27:09.473Z,89.10
2019-03-27T08:29:38.511Z,86.10
2019-03-27T08:32:07.499Z,87.60
2019-03-27T08:34:36.294Z,85.30
2019-03-27T08:37:05.229Z,82.30
2019-03-27T08:39:34.096Z,81.30
2019-03-27T08:42:02.893Z,80.40
2019-03-27T08:44:31.705Z,79.60
2019-03-27T08:47:00.527Z,78.40
2019-03-27T08:49:29.478Z,78.40
2019-03-27T08:51:58.284Z,75.70
2019-03-27T08:54:27.100Z,75.00
2019-03-27T08:56:55.997Z,77.20
2019-03-27T08:59:24.985Z,78.70
2019-03-27T09:01:53.825Z,78.20
2019-03-27T09:04:23.243Z,76.70
2019-03-27T09:06:52.253Z,76.60
2019-03-27T09:09:21.539Z,75.30
2019-03-27T09:11:50.606Z,75.10
2019-03-27T09:14:19.617Z,71.20
2019-03-27T09:16:48.815Z,71.20
2019-03-27T09:19:17.824Z,72.30
2019-03-27T09:21:46.722Z,70.50
2019-03-27T09:24:15.762Z,70.20
2019-03-27T09:26:44.573Z,71.80
2019-03-27T09:29:13.827Z,71.40
2019-03-27T09:31:45.189Z,70.10
2019-03-27T09:34:13.703Z,70.70
2019-03-27T09:36:42.537Z,70.80
2019-03-27T09:39:11.429Z,71.80
2019-03-27T09:41:40.390Z,70.30
2019-03-27T09:44:09.333Z,70.60
2019-03-27T09:46:38.518Z,70.90
2019-03-27T09:49:07.569Z,74.10
2019-03-27T09:51:36.614Z,72.10
2019-03-27T09:54:05.825Z,72.90
2019-03-27T09:56:34.788Z,71.50
2019-03-27T09:59:06.038Z,72.40
2019-03-27T10:01:34.696Z,72.00
2019-03-27T10:04:03.606Z,69.20
2019-03-27T10:06:32.911Z,70.40
2019-03-27T10:09:01.891Z,70.10
2019-03-27T10:11:30.753Z,71.10
2019-03-27T10:13:59.862Z,71.50
2019-03-27T10:16:28.612Z,71.30
2019-03-27T10:18:57.763Z,72.10
2019-03-27T10:21:26.583Z,70.40
2019-03-27T10:23:55.525Z,68.50
2019-03-27T10:26:24.385Z,67.40
2019-03-27T10:28:53.131Z,66.10
2019-03-27T10:31:21.939Z,65.20
2019-03-27T10:33:51.028Z,63.70
2019-03-27T10:36:20.185Z,62.90
2019-03-27T10:38:49.929Z,63.70
2019-03-27T10:41:18.815Z,63.50
2019-03-27T10:43:47.552Z,64.70
2019-03-27T10:46:16.296Z,65.30
2019-03-27T10:48:52.345Z,65.40
2019-03-27T10:51:15.980Z,65.30
2019-03-27T10:53:44.761Z,66.00
2019-03-27T10:56:14.001Z,66.10
2019-03-27T10:58:42.867Z,64.20
2019-03-27T11:01:12.198Z,63.40
2019-03-27T11:03:41.328Z,62.20
2019-03-27T11:06:10.330Z,61.20
2019-03-27T11:08:39.206Z,60.90
2019-03-27T11:11:08.206Z,60.50
2019-03-27T11:13:37.034Z,60.00
2019-03-27T11:16:05.851Z,56.40
2019-03-27T11:18:34.695Z,53.90
2019-03-27T11:21:03.614Z,50.80
2019-03-27T11:23:32.367Z,47.90
2019-03-27T11:26:01.145Z,50.30
2019-03-27T11:28:30.626Z,52.00
2019-03-27T11:30:59.560Z,56.80
2019-03-27T11:33:28.992Z,53.60
2019-03-27T11:35:58.004Z,54.70
2019-03-27T11:38:27.122Z,51.80
2019-03-27T11:40:56.217Z,50.10
2019-03-27T11:43:25.327Z,49.50
2019-03-27T11:45:54.041Z,49.30
2019-03-27T11:48:22.937Z,49.10
2019-03-27T11:50:52.066Z,47.60
2019-03-27T11:53:20.953Z,50.90
2019-03-27T11:55:49.920Z,49.60
2019-03-27T11:58:19.838Z,49.10
2019-03-27T12:00:54.781Z,47.60
2019-03-27T12:03:19.299Z,48.90
2019-03-27T12:05:48.709Z,48.10
2019-03-27T12:08:17.837Z,49.50
2019-03-27T12:10:46.771Z,53.90
2019-03-27T12:13:17.324Z,52.40
2019-03-27T12:15:46.150Z,49.40
2019-03-27T12:18:16.435Z,50.60
2019-03-27T12:20:58.171Z,51.90
2019-03-27T12:23:16.263Z,48.70
2019-03-27T12:25:45.149Z,47.20
2019-03-27T12:28:14.072Z,46.60
2019-03-27T12:30:43.047Z,44.00
2019-03-27T12:33:11.884Z,41.80
2019-03-27T12:35:41.374Z,42.10
2019-03-27T12:38:10.193Z,44.90
2019-03-27T12:40:39.082Z,42.80
2019-03-27T12:43:08.088Z,41.80
2019-03-27T12:45:36.825Z,41.60
2019-03-27T12:48:06.468Z,39.10
2019-03-27T12:50:35.943Z,41.80
2019-03-27T12:53:05.157Z,40.10
2019-03-27T12:55:34.264Z,40.60
2019-03-27T12:58:03.219Z,41.70
2019-03-27T13:00:32.298Z,41.20
2019-03-27T13:03:01.237Z,39.90
2019-03-27T13:05:29.994Z,40.10
2019-03-27T13:07:59.007Z,40.80
2019-03-27T13:10:27.878Z,39.20
2019-03-27T13:12:56.818Z,38.80
2019-03-27T13:15:25.680Z,37.80
2019-03-27T13:17:54.680Z,38.00
2019-03-27T13:20:23.712Z,36.40
2019-03-27T13:22:52.660Z,36.20
2019-03-27T13:25:21.399Z,38.10
2019-03-27T13:27:50.296Z,38.90
2019-03-27T13:30:19.510Z,37.60
2019-03-27T13:32:49.018Z,38.20
2019-03-27T13:35:17.755Z,39.50
2019-03-27T13:37:46.671Z,37.60
2019-03-27T13:40:16.216Z,38.50
2019-03-27T13:42:45.174Z,36.50
2019-03-27T13:45:14.823Z,35.30
2019-03-27T13:47:44.091Z,33.50
2019-03-27T13:50:14.829Z,32.90
2019-03-27T13:52:44.017Z,32.50
2019-03-27T13:55:13.131Z,31.60
2019-03-27T13:57:41.920Z,31.50
2019-03-27T14:00:12.151Z,30.40
2019-03-27T14:02:40.907Z,32.10
2019-03-27T14:05:10.748Z,34.20
2019-03-27T14:07:39.738Z,33.00
2019-03-27T14:10:08.971Z,32.60
2019-03-27T14:12:37.894Z,34.20
2019-03-27T14:15:08.127Z,33.90
2019-03-27T14:17:37.012Z,34.40
2019-03-27T14:20:07.952Z,32.90
2019-03-27T14:22:37.007Z,31.60
2019-03-27T14:25:08.050Z,30.90
2019-03-27T14:27:37.019Z,29.50
2019-03-27T14:30:10.240Z,29.90
2019-03-27T14:32:39.276Z,31.80
2019-03-27T14:35:10.347Z,31.30
2019-03-27T14:37:39.324Z,30.90
2019-03-27T14:40:09.690Z,30.00
2019-03-27T14:42:38.762Z,29.40
2019-03-27T14:45:09.768Z,30.50
2019-03-27T14:47:39.096Z,29.80
2019-03-27T14:50:09.420Z,29.80
2019-03-27T14:52:38.921Z,28.90
2019-03-27T14:55:08.943Z,29.30
2019-03-27T14:57:38.533Z,28.10
2019-03-27T15:00:09.727Z,28.10
2019-03-27T15:02:38.764Z,28.60
2019-03-27T15:05:08.290Z,28.60
2019-03-27T15:07:37.272Z,28.10
2019-03-27T15:10:07.936Z,28.40
2019-03-27T15:12:36.797Z,28.10
2019-03-27T15:15:06.894Z,29.40
2019-03-27T15:17:35.772Z,28.30
2019-03-27T15:20:05.803Z,28.90
2019-03-27T15:22:37.468Z,27.70
2019-03-27T15:25:07.526Z,27.20
2019-03-27T15:27:36.744Z,27.50
2019-03-27T15:30:08.014Z,26.30
2019-03-27T15:32:36.837Z,26.00
2019-03-27T15:35:08.076Z,26.70
2019-03-27T15:37:37.251Z,24.90
2019-03-27T15:40:10.008Z,26.10
2019-03-27T15:42:39.777Z,28.10
2019-03-27T15:45:09.597Z,28.60
2019-03-27T15:47:51.594Z,28.60
2019-03-27T15:50:20.681Z,28.10
2019-03-27T15:52:49.544Z,28.90
2019-03-27T15:55:18.508Z,28.90
2019-03-27T15:57:47.236Z,28.80
2019-03-27T16:00:16.339Z,28.50
2019-03-27T16:02:45.150Z,27.80
2019-03-27T16:05:14.161Z,28.30
2019-03-27T16:07:43.011Z,28.30
2019-03-27T16:10:12.064Z,28.30
2019-03-27T16:12:41.476Z,28.40
2019-03-27T16:15:10.691Z,28.60
2019-03-27T16:17:39.514Z,28.30
2019-03-27T16:20:08.879Z,28.60
2019-03-27T16:22:50.044Z,27.20
2019-03-27T16:25:08.544Z,27.60
2019-03-27T16:27:37.478Z,27.60
2019-03-27T16:30:06.830Z,27.20
2019-03-27T16:32:35.610Z,28.30
2019-03-27T16:35:04.827Z,28.20
2019-03-27T16:37:33.771Z,28.60
2019-03-27T16:40:03.262Z,28.80
2019-03-27T16:42:32.069Z,28.90
2019-03-27T16:45:00.992Z,28.60
2019-03-27T16:47:29.906Z,29.50
2019-03-27T16:49:58.729Z,29.30
2019-03-27T16:52:28.155Z,29.30
2019-03-27T16:54:56.998Z,29.40
2019-03-27T16:57:25.974Z,29.10
2019-03-27T16:59:54.766Z,29.60
2019-03-27T17:02:23.621Z,29.90
2019-03-27T17:04:53.066Z,30.30
2019-03-27T17:07:21.834Z,29.70
2019-03-27T17:09:50.783Z,30.00
2019-03-27T17:12:19.794Z,30.20
2019-03-27T17:14:49.177Z,30.20
2019-03-27T17:17:18.120Z,31.00
2019-03-27T17:19:47.565Z,30.80
2019-03-27T17:22:19.699Z,31.20
2019-03-27T17:24:47.144Z,30.60
2019-03-27T17:27:16.080Z,31.00
2019-03-27T17:29:48.270Z,30.90
2019-03-27T17:32:17.135Z,31.40
2019-03-27T17:34:46.097Z,31.40
2019-03-27T17:37:15.120Z,31.30
2019-03-27T17:39:43.835Z,31.90
2019-03-27T17:42:13.177Z,32.30
2019-03-27T17:44:42.125Z,33.00
2019-03-27T17:47:11.295Z,34.10
2019-03-27T17:49:40.063Z,34.30
2019-03-27T17:52:08.833Z,35.10
2019-03-27T17:54:37.866Z,36.00
2019-03-27T17:57:06.972Z,36.90
2019-03-27T17:59:35.883Z,37.60
2019-03-27T18:02:04.725Z,39.20
2019-03-27T18:04:33.595Z,40.00
2019-03-27T18:07:02.939Z,40.90
2019-03-27T18:09:32.366Z,41.40
2019-03-27T18:12:01.365Z,41.00
2019-03-27T18:14:30.329Z,41.30
2019-03-27T18:16:59.407Z,41.00
2019-03-27T18:19:28.414Z,42.00
2019-03-27T18:22:07.139Z,42.80
2019-03-27T18:24:27.947Z,43.70
2019-03-27T18:26:57.315Z,43.50
2019-03-27T18:29:26.243Z,42.80
2019-03-27T18:31:55.147Z,43.40
2019-03-27T18:34:23.871Z,43.40
2019-03-27T18:36:52.949Z,43.70
2019-03-27T18:39:21.706Z,43.60
2019-03-27T18:41:50.627Z,44.60
2019-03-27T18:44:19.823Z,44.20
2019-03-27T18:46:48.631Z,46.20
2019-03-27T18:49:17.668Z,46.50
2019-03-27T18:51:46.609Z,46.40
2019-03-27T18:54:15.430Z,46.80
2019-03-27T18:56:44.353Z,47.70
2019-03-27T18:59:13.479Z,47.50
2019-03-27T19:01:42.284Z,46.60
2019-03-27T19:04:11.582Z,47.90
2019-03-27T19:06:40.716Z,46.70
2019-03-27T19:09:09.737Z,47.00
2019-03-27T19:11:38.586Z,47.10
2019-03-27T19:14:07.763Z,51.70
2019-03-27T19:16:36.631Z,49.50
2019-03-27T19:19:05.819Z,55.10
2019-03-27T19:21:34.605Z,60.00
2019-03-27T19:24:14.762Z,62.30
2019-03-27T19:26:34.958Z,63.90
2019-03-27T19:29:04.207Z,64.40
2019-03-27T19:31:33.625Z,66.00
2019-03-27T19:34:02.641Z,65.90
2019-03-27T19:36:31.578Z,66.30
2019-03-27T19:39:00.420Z,67.60
2019-03-27T19:41:29.441Z,68.30
2019-03-27T19:43:58.973Z,68.10
2019-03-27T19:46:27.970Z,69.00
2019-03-27T19:48:56.946Z,70.70
2019-03-27T19:51:25.848Z,70.60
2019-03-27T19:53:54.680Z,73.10
2019-03-27T19:56:23.540Z,72.90
2019-03-27T19:58:52.461Z,74.60
2019-03-27T20:01:21.358Z,74.90
2019-03-27T20:03:50.527Z,77.40
2019-03-27T20:06:19.477Z,79.20
2019-03-27T20:08:48.692Z,80.50
2019-03-27T20:11:17.546Z,80.20
2019-03-27T20:13:46.663Z,79.10
2019-03-27T20:16:15.749Z,75.50
2019-03-27T20:18:44.763Z,74.20
2019-03-27T20:21:13.841Z,72.30
2019-03-27T20:23:43.162Z,71.10
2019-03-27T20:26:13.028Z,72.00
2019-03-27T20:28:42.456Z,72.90
2019-03-27T20:31:11.791Z,73.80
2019-03-27T20:33:40.687Z,74.50
2019-03-27T20:36:09.495Z,75.30
2019-03-27T20:38:38.317Z,75.80
2019-03-27T20:41:07.147Z,75.50
2019-03-27T20:43:36.067Z,78.40
2019-03-27T20:46:04.987Z,79.80
2019-03-27T20:48:33.803Z,80.80
2019-03-27T20:51:02.912Z,80.20
2019-03-27T20:53:31.881Z,79.50
2019-03-27T20:56:00.751Z,80.10
2019-03-27T20:58:30.034Z,82.50
2019-03-27T21:00:58.968Z,82.20
2019-03-27T21:03:27.839Z,84.20
2019-03-27T21:05:56.838Z,86.10
2019-03-27T21:08:25.722Z,86.20
2019-03-27T21:10:54.581Z,88.20
2019-03-27T21:13:23.709Z,90.50
2019-03-27T21:15:52.545Z,91.20
2019-03-27T21:18:21.427Z,91.90
2019-03-27T21:20:50.279Z,94.90
2019-03-27T21:23:19.181Z,95.10
2019-03-27T21:25:48.113Z,98.20
2019-03-27T21:28:16.968Z,99.90
2019-03-27T21:30:45.863Z,99.20
2019-03-27T21:33:14.954Z,99.90
2019-03-27T21:35:43.620Z,99.90
2019-03-27T21:38:12.501Z,99.90
2019-03-27T21:40:41.343Z,99.90
2019-03-27T21:43:10.317Z,99.90
2019-03-27T21:45:39.160Z,99.90
2019-03-27T21:48:08.461Z,99.90
2019-03-27T21:50:37.696Z,99.90
2019-03-27T21:53:06.540Z,99.90
2019-03-27T21:55:42.605Z,99.90
2019-03-27T21:58:06.410Z,99.90
2019-03-27T22:00:39.536Z,99.90
2019-03-27T22:03:08.975Z,99.90
2019-03-27T22:05:37.865Z,99.90
2019-03-27T22:08:06.897Z,99.90
2019-03-27T22:10:35.842Z,99.90
2019-03-27T22:13:04.936Z,99.90
2019-03-27T22:15:34.000Z,99.90
2019-03-27T22:18:02.867Z,99.90
2019-03-27T22:20:32.171Z,99.90
2019-03-27T22:23:01.060Z,99.90
2019-03-27T22:25:35.837Z,99.90
2019-03-27T22:28:00.806Z,99.90
2019-03-27T22:30:29.751Z,99.90
2019-03-27T22:32:58.540Z,99.90
2019-03-27T22:35:27.492Z,99.90
2019-03-27T22:37:56.261Z,99.90
2019-03-27T22:40:25.217Z,99.90
2019-03-27T22:42:56.819Z,99.90
2019-03-27T22:45:24.958Z,99.90
2019-03-27T22:47:53.756Z,99.90
2019-03-27T22:50:22.783Z,99.90
2019-03-27T22:52:51.669Z,99.90
2019-03-27T22:55:21.057Z,99.90
2019-03-27T22:57:49.986Z,99.90
2019-03-27T23:00:21.255Z,99.90
2019-03-27T23:02:50.058Z,99.90
2019-03-27T23:05:19.186Z,99.90
2019-03-27T23:07:48.036Z,99.90
2019-03-27T23:10:16.860Z,99.90
2019-03-27T23:12:45.682Z,99.90
2019-03-27T23:15:15.664Z,99.90
2019-03-27T23:17:44.942Z,99.90
2019-03-27T23:20:13.935Z,99.90
2019-03-27T23:22:42.693Z,99.90
2019-03-27T23:25:11.756Z,99.90
2019-03-27T23:27:40.509Z,99.90
2019-03-27T23:30:10.725Z,99.90
2019-03-27T23:32:39.486Z,99.90
2019-03-27T23:35:08.551Z,99.90
2019-03-27T23:37:37.388Z,99.90
2019-03-27T23:40:08.614Z,99.90
2019-03-27T23:42:37.551Z,99.90
2019-03-27T23:45:07.786Z,99.90
2019-03-27T23:47:36.570Z,99.90
2019-03-27T23:50:06.276Z,99.90
2019-03-27T23:52:35.699Z,99.90
2019-03-27T23:55:04.827Z,99.90
2019-03-27T23:57:33.682Z,99.90
